createdAt,value
2023-04-29T00:00:45.081Z,14.8
2023-04-29T00:03:17.160Z,14.7
2023-04-29T00:05:48.206Z,14.7
2023-04-29T00:08:19.020Z,14.8
2023-04-29T00:10:49.867Z,14.8
2023-04-29T00:13:20.556Z,14.8
2023-04-29T00:15:51.282Z,14.7
2023-04-29T00:18:22.589Z,14.7
2023-04-29T00:20:53.305Z,14.7
2023-04-29T00:23:24.408Z,14.7
2023-04-29T00:25:55.905Z,14.7
2023-04-29T00:28:27.606Z,14.7
2023-04-29T00:30:58.689Z,14.8
2023-04-29T00:33:29.260Z,14.7
2023-04-29T00:35:59.968Z,14.7
2023-04-29T00:38:31.539Z,14.7
2023-04-29T00:41:02.045Z,14.8
2023-04-29T00:43:32.936Z,14.8
2023-04-29T00:46:03.950Z,14.7
2023-04-29T00:48:34.728Z,14.7
2023-04-29T00:51:05.319Z,14.8
2023-04-29T00:53:36.316Z,14.8
2023-04-29T00:56:07.595Z,14.8
2023-04-29T00:58:37.911Z,14.8
2023-04-29T01:01:09.165Z,14.7
2023-04-29T01:03:40.599Z,14.6
2023-04-29T01:06:11.642Z,14.7
2023-04-29T01:08:41.798Z,14.7
2023-04-29T01:11:13.152Z,14.7
2023-04-29T01:13:44.409Z,14.7
2023-04-29T01:16:15.279Z,14.7
2023-04-29T01:18:46.355Z,14.7
2023-04-29T01:21:17.015Z,14.7
2023-04-29T01:23:47.989Z,14.6
2023-04-29T01:26:18.695Z,14.7
2023-04-29T01:28:49.286Z,14.6
2023-04-29T01:31:19.902Z,14.6
2023-04-29T01:33:50.736Z,14.7
2023-04-29T01:36:21.582Z,14.7
2023-04-29T01:38:52.690Z,14.7
2023-04-29T01:41:23.113Z,14.6
2023-04-29T01:43:54.237Z,14.6
2023-04-29T01:46:24.822Z,14.6
2023-04-29T01:48:55.869Z,14.7
2023-04-29T01:51:26.425Z,14.6
2023-04-29T01:53:57.192Z,14.7
2023-04-29T01:56:28.017Z,14.7
2023-04-29T01:58:57.210Z,14.7
2023-04-29T02:01:27.634Z,14.7
2023-04-29T02:03:58.077Z,14.8
2023-04-29T02:06:28.275Z,14.9
2023-04-29T02:08:59.031Z,14.8
2023-04-29T02:11:29.524Z,14.8
2023-04-29T02:14:00.201Z,14.7
2023-04-29T02:16:31.009Z,14.8
2023-04-29T02:19:01.743Z,14.8
2023-04-29T02:21:32.487Z,14.6
2023-04-29T02:24:03.199Z,14.7
2023-04-29T02:26:34.092Z,14.8
2023-04-29T02:29:04.655Z,14.8
2023-04-29T02:31:35.878Z,14.9
2023-04-29T02:34:06.814Z,14.9
2023-04-29T02:36:37.418Z,14.6
2023-04-29T02:39:08.168Z,14.7
2023-04-29T02:41:39.395Z,14.8
2023-04-29T02:44:10.091Z,14.8
2023-04-29T02:46:41.109Z,14.8
2023-04-29T02:49:12.136Z,14.8
2023-04-29T02:51:43.172Z,14.8
2023-04-29T02:54:13.479Z,14.9
2023-04-29T02:56:44.392Z,14.7
2023-04-29T02:59:15.364Z,14.9
2023-04-29T03:01:46.819Z,14.9
2023-04-29T03:04:18.033Z,14.9
2023-04-29T03:06:48.570Z,14.9
2023-04-29T03:09:19.720Z,14.9
2023-04-29T03:11:50.480Z,14.9
2023-04-29T03:14:21.373Z,14.9
2023-04-29T03:16:51.590Z,14.9
2023-04-29T03:19:22.723Z,14.9
2023-04-29T03:21:54.185Z,14.9
2023-04-29T03:24:24.714Z,14.7
2023-04-29T03:26:55.552Z,14.8
2023-04-29T03:29:26.596Z,14.9
2023-04-29T03:31:57.732Z,14.9
2023-04-29T03:34:28.296Z,14.8
2023-04-29T03:36:59.278Z,14.8
2023-04-29T03:39:30.763Z,14.7
2023-04-29T03:42:02.052Z,14.8
2023-04-29T03:44:33.511Z,14.9
2023-04-29T03:47:04.589Z,14.8
2023-04-29T03:49:35.298Z,14.9
2023-04-29T03:52:06.362Z,14.8
2023-04-29T03:54:37.349Z,14.8
2023-04-29T03:57:08.154Z,14.9
2023-04-29T03:59:39.177Z,14.9
2023-04-29T04:02:10.218Z,14.9
2023-04-29T04:04:41.752Z,14.9
2023-04-29T04:07:12.276Z,14.9
2023-04-29T04:09:43.069Z,14.9
2023-04-29T04:12:13.765Z,14.9
2023-04-29T04:14:44.162Z,14.8
2023-04-29T04:17:15.262Z,14.9
2023-04-29T04:19:46.340Z,15
2023-04-29T04:22:17.457Z,15
2023-04-29T04:24:48.908Z,14.9
2023-04-29T04:27:20.422Z,15
2023-04-29T04:29:50.995Z,14.9
2023-04-29T04:32:22.042Z,15
2023-04-29T04:34:52.647Z,14.9
2023-04-29T04:37:23.161Z,15.1
2023-04-29T04:39:54.585Z,15
2023-04-29T04:42:25.277Z,15
2023-04-29T04:44:56.605Z,14.8
2023-04-29T04:47:27.383Z,14.8
2023-04-29T04:49:57.793Z,15
2023-04-29T04:52:28.894Z,14.9
2023-04-29T04:54:59.878Z,14.9
2023-04-29T04:57:30.549Z,15
2023-04-29T05:00:02.009Z,15
2023-04-29T05:02:33.194Z,14.9
2023-04-29T05:05:03.930Z,15
2023-04-29T05:07:34.941Z,15
2023-04-29T05:10:05.649Z,15
2023-04-29T05:12:36.617Z,15
2023-04-29T05:15:07.681Z,14.9
2023-04-29T06:33:40.598Z,14.6
2023-04-29T06:36:20.369Z,14.8
2023-04-29T06:38:51.411Z,15.2
2023-04-29T06:41:25.408Z,15.4
2023-04-29T06:44:05.080Z,15.6
2023-04-29T06:46:36.503Z,15.6
2023-04-29T06:49:07.678Z,15.7
2023-04-29T06:51:38.652Z,15.9
2023-04-29T06:54:15.036Z,16
2023-04-29T06:56:45.639Z,16.1
2023-04-29T06:59:17.283Z,16.2
2023-04-29T07:01:49.973Z,16.2
2023-04-29T07:04:18.632Z,16.3
2023-04-29T07:06:50.409Z,16.3
2023-04-29T07:09:21.413Z,16.5
2023-04-29T07:11:50.666Z,16.4
2023-04-29T07:14:21.441Z,16.5
2023-04-29T07:16:52.174Z,16.4
2023-04-29T07:19:23.632Z,16.2
2023-04-29T07:21:54.044Z,15.9
2023-04-29T07:24:24.696Z,16
2023-04-29T07:26:55.544Z,16.3
2023-04-29T07:29:26.021Z,16.4
2023-04-29T07:31:54.685Z,16.6
2023-04-29T07:34:28.260Z,16.6
2023-04-29T07:36:58.441Z,16.7
2023-04-29T07:39:28.479Z,17
2023-04-29T07:41:59.863Z,17.1
2023-04-29T07:44:30.348Z,17
2023-04-29T07:47:00.775Z,17.1
2023-04-29T07:49:32.546Z,17.2
2023-04-29T07:52:04.324Z,17.3
2023-04-29T07:54:34.966Z,17.3
2023-04-29T07:57:05.852Z,17
2023-04-29T07:59:38.617Z,17.3
2023-04-29T08:02:08.769Z,17.5
2023-04-29T08:04:41.737Z,17.5
2023-04-29T08:07:12.013Z,17.5
2023-04-29T08:09:43.642Z,17.7
2023-04-29T08:12:12.718Z,17.6
2023-04-29T08:14:44.489Z,17.6
2023-04-29T08:17:15.413Z,17.6
2023-04-29T08:19:45.995Z,17.6
2023-04-29T08:22:16.378Z,17.7
2023-04-29T08:24:47.910Z,17.7
2023-04-29T08:27:18.745Z,17.4
2023-04-29T08:29:49.122Z,17.6
2023-04-29T08:32:19.746Z,17.8
2023-04-29T08:34:51.878Z,17.6
2023-04-29T08:37:21.993Z,17.7
2023-04-29T08:39:53.043Z,17.8
2023-04-29T08:42:23.546Z,18.3
2023-04-29T08:44:54.177Z,18.5
2023-04-29T08:47:25.684Z,18.4
2023-04-29T08:49:56.125Z,18.2
2023-04-29T08:52:28.785Z,18.3
2023-04-29T08:54:59.674Z,18.4
2023-04-29T08:57:29.195Z,18.5
2023-04-29T09:00:00.753Z,18.6
2023-04-29T09:02:31.449Z,18.7
2023-04-29T09:05:02.013Z,18.8
2023-04-29T09:07:32.783Z,18.7
2023-04-29T09:10:01.776Z,19
2023-04-29T09:12:32.055Z,19.1
2023-04-29T09:17:40.396Z,19
2023-04-29T09:20:12.753Z,19.1
2023-04-29T09:22:44.321Z,19.2
2023-04-29T09:25:14.844Z,19.3
2023-04-29T09:27:45.206Z,19.1
2023-04-29T09:30:15.671Z,18.9
2023-04-29T09:32:44.782Z,19.2
2023-04-29T09:35:16.378Z,19.1
2023-04-29T09:37:47.176Z,19.4
2023-04-29T09:40:18.101Z,19.5
2023-04-29T09:42:49.892Z,19.6
2023-04-29T09:45:21.000Z,19.6
2023-04-29T09:47:52.886Z,19.8
2023-04-29T09:50:23.944Z,19.8
2023-04-29T09:52:54.945Z,19.9
2023-04-29T09:55:25.797Z,20
2023-04-29T09:57:55.030Z,20.2
2023-04-29T10:00:26.030Z,20.4
2023-04-29T10:02:56.407Z,20.6
2023-04-29T10:05:28.186Z,20.6
2023-04-29T10:07:57.846Z,20.5
2023-04-29T10:10:30.010Z,20.7
2023-04-29T10:12:58.678Z,20.6
2023-04-29T10:15:29.509Z,20.6
2023-04-29T10:18:00.185Z,20.8
2023-04-29T10:20:34.572Z,20.8
2023-04-29T10:23:09.288Z,20.7
2023-04-29T10:25:39.876Z,20.6
2023-04-29T10:28:08.951Z,20.9
2023-04-29T10:30:39.682Z,21
2023-04-29T10:33:11.153Z,21.2
2023-04-29T10:35:41.330Z,21.3
2023-04-29T10:38:11.984Z,21.4
2023-04-29T10:40:42.352Z,21.4
2023-04-29T10:43:13.096Z,21.6
2023-04-29T10:45:43.956Z,21.5
2023-04-29T10:48:15.012Z,21.7
2023-04-29T10:50:46.683Z,21.8
2023-04-29T10:53:19.522Z,21.9
2023-04-29T10:55:50.239Z,21.9
2023-04-29T10:58:20.822Z,22
2023-04-29T11:00:51.135Z,21.9
2023-04-29T11:03:22.937Z,21.7
2023-04-29T11:05:55.592Z,22
2023-04-29T11:08:26.987Z,22.1
2023-04-29T11:10:57.683Z,22.2
2023-04-29T11:13:28.425Z,22
2023-04-29T11:15:58.814Z,22.2
2023-04-29T11:18:29.630Z,22.3
2023-04-29T11:21:00.232Z,22.4
2023-04-29T11:23:31.693Z,22.6
2023-04-29T11:26:04.499Z,22.7
2023-04-29T11:28:34.990Z,22.7
2023-04-29T11:31:05.509Z,22.7
2023-04-29T11:33:35.837Z,22.6
2023-04-29T11:36:06.151Z,22.9
2023-04-29T11:38:43.686Z,22.9
2023-04-29T11:41:12.743Z,23
2023-04-29T11:43:44.796Z,23.1
2023-04-29T11:46:15.700Z,23
2023-04-29T11:48:46.045Z,23
2023-04-29T11:51:15.282Z,23.2
2023-04-29T11:53:46.137Z,23.2
2023-04-29T11:56:16.397Z,23.2
2023-04-29T11:58:47.207Z,23.3
2023-04-29T12:01:17.552Z,23.2
2023-04-29T12:03:48.178Z,23.2
2023-04-29T12:06:19.152Z,22.9
2023-04-29T12:08:49.537Z,22.8
2023-04-29T12:11:20.638Z,22.8
2023-04-29T12:13:52.810Z,22.9
2023-04-29T12:16:23.192Z,22.9
2023-04-29T12:18:54.610Z,23
2023-04-29T12:21:26.259Z,23.2
2023-04-29T12:23:57.108Z,23.4
2023-04-29T12:26:28.589Z,23.5
2023-04-29T12:28:59.074Z,23.7
2023-04-29T12:31:29.923Z,24
2023-04-29T12:34:02.520Z,24
2023-04-29T12:36:41.762Z,24.2
2023-04-29T12:39:12.609Z,24.3
2023-04-29T12:41:43.991Z,24.3
2023-04-29T12:44:13.345Z,24.4
2023-04-29T12:46:44.545Z,24.5
2023-04-29T12:49:14.271Z,24.4
2023-04-29T12:51:45.751Z,24.4
2023-04-29T12:54:17.491Z,24.6
2023-04-29T12:56:48.735Z,24.7
2023-04-29T12:59:18.584Z,24.8
2023-04-29T13:01:49.754Z,24.9
2023-04-29T13:04:19.774Z,24.9
2023-04-29T13:06:51.446Z,25
2023-04-29T13:09:25.570Z,24.8
2023-04-29T13:11:56.188Z,24.9
2023-04-29T13:14:28.304Z,25.1
2023-04-29T13:17:01.108Z,25
2023-04-29T13:19:43.855Z,24.9
2023-04-29T13:22:02.355Z,25.1
2023-04-29T13:24:32.712Z,25
2023-04-29T13:27:03.402Z,25.2
2023-04-29T13:29:34.118Z,25.3
2023-04-29T13:32:06.138Z,25.2
2023-04-29T13:34:36.774Z,25.2
2023-04-29T13:37:07.434Z,25.2
2023-04-29T13:39:39.699Z,25.4
2023-04-29T13:42:11.039Z,25.3
2023-04-29T13:47:11.396Z,25.2
2023-04-29T13:50:16.404Z,25.3
2023-04-29T13:59:52.762Z,24.9
2023-04-29T14:02:25.331Z,24.9
2023-04-29T14:04:53.277Z,24.8
2023-04-29T14:07:23.639Z,24.8
2023-04-29T14:09:54.102Z,24.8
2023-04-29T14:12:23.130Z,24.9
2023-04-29T14:14:54.596Z,24.7
2023-04-29T14:17:25.199Z,24.5
2023-04-29T14:19:56.645Z,24.6
2023-04-29T14:22:27.613Z,24.6
2023-04-29T14:24:58.326Z,24.4
2023-04-29T14:27:28.979Z,24.5
2023-04-29T14:29:59.899Z,24.4
2023-04-29T14:32:33.881Z,24.4
2023-04-29T14:35:04.044Z,24.1
2023-04-29T14:37:34.594Z,24.2
2023-04-29T14:40:04.663Z,24
2023-04-29T14:42:44.858Z,23.8
2023-04-29T14:45:13.322Z,23.8
2023-04-29T14:47:43.387Z,23.5
2023-04-29T14:50:13.547Z,23.5
2023-04-29T14:52:43.962Z,23.5
2023-04-29T14:55:14.919Z,23.6
2023-04-29T14:57:45.219Z,23.5
2023-04-29T15:00:15.266Z,23.5
2023-04-29T15:02:46.118Z,23.5
2023-04-29T15:05:17.262Z,23.5
2023-04-29T15:07:50.977Z,23.4
2023-04-29T15:10:23.523Z,23.3
2023-04-29T15:12:53.461Z,23.1
2023-04-29T15:15:24.037Z,23
2023-04-29T15:17:56.448Z,22.7
2023-04-29T15:20:25.479Z,22.7
2023-04-29T15:22:57.418Z,22.6
2023-04-29T15:25:31.823Z,22.8
2023-04-29T15:28:03.721Z,22.6
2023-04-29T15:30:35.422Z,22.7
2023-04-29T15:33:06.250Z,22.6
2023-04-29T15:35:36.187Z,22.5
2023-04-29T15:38:07.695Z,22.3
2023-04-29T15:40:38.606Z,22.5
2023-04-29T15:43:11.087Z,22.4
2023-04-29T15:45:41.711Z,22.1
2023-04-29T15:48:12.566Z,22.1
2023-04-29T15:50:46.933Z,22.1
2023-04-29T15:53:16.269Z,22
2023-04-29T15:55:46.966Z,21.9
2023-04-29T15:58:16.026Z,21.9
2023-04-29T16:00:46.803Z,21.8
2023-04-29T16:03:17.420Z,21.8
2023-04-29T16:05:47.770Z,21.6
2023-04-29T16:08:20.254Z,21.5
2023-04-29T16:10:50.634Z,21.5
2023-04-29T16:13:21.345Z,21.5
2023-04-29T16:15:52.321Z,21.5
2023-04-29T16:18:22.774Z,21.5
2023-04-29T16:20:53.303Z,21.3
2023-04-29T16:23:23.679Z,21.4
2023-04-29T16:25:54.390Z,21.4
2023-04-29T16:28:25.782Z,21.4
2023-04-29T16:30:57.497Z,21.4
2023-04-29T16:33:29.320Z,21.4
2023-04-29T16:36:04.158Z,21.2
2023-04-29T16:38:35.017Z,21.2
2023-04-29T16:41:06.412Z,21.1
2023-04-29T16:43:51.460Z,21.1
2023-04-29T16:46:34.028Z,21.1
2023-04-29T16:49:04.315Z,21.2
2023-04-29T16:51:34.377Z,21.1
2023-04-29T16:54:04.809Z,21.1
2023-04-29T16:56:35.010Z,21
2023-04-29T16:59:07.107Z,21
2023-04-29T17:01:37.808Z,21
2023-04-29T17:04:08.488Z,21
2023-04-29T17:06:39.062Z,20.9
2023-04-29T17:09:09.714Z,20.9
2023-04-29T17:11:40.848Z,20.8
2023-04-29T17:14:11.084Z,20.6
2023-04-29T17:16:41.846Z,20.6
2023-04-29T17:19:13.145Z,20.5
2023-04-29T17:21:47.506Z,20.7
2023-04-29T17:24:19.388Z,20.6
2023-04-29T17:26:50.098Z,20.5
2023-04-29T17:29:21.547Z,20.6
2023-04-29T17:31:52.226Z,20.5
2023-04-29T17:34:21.628Z,20.6
2023-04-29T17:36:52.036Z,20.6
2023-04-29T17:39:21.192Z,20.5
2023-04-29T17:41:52.985Z,20.4
2023-04-29T17:44:24.604Z,20.5
2023-04-29T17:46:57.804Z,20.4
2023-04-29T17:49:29.544Z,20.4
2023-04-29T17:52:01.332Z,20.3
2023-04-29T17:54:32.236Z,20.3
2023-04-29T17:57:07.692Z,20.4
2023-04-29T17:59:39.169Z,20.3
2023-04-29T18:02:10.062Z,20.4
2023-04-29T18:04:43.338Z,20.3
2023-04-29T18:07:14.402Z,20.3
2023-04-29T18:09:44.708Z,20.3
2023-04-29T18:12:15.277Z,20.3
2023-04-29T18:14:45.630Z,20
2023-04-29T18:17:16.193Z,20
2023-04-29T18:19:50.664Z,20
2023-04-29T18:22:20.746Z,20.1
2023-04-29T18:24:52.588Z,20
2023-04-29T18:27:24.815Z,20
2023-04-29T18:29:55.787Z,20
2023-04-29T18:32:26.162Z,20
2023-04-29T18:34:56.865Z,20
2023-04-29T18:37:27.606Z,20
2023-04-29T18:39:59.460Z,20
2023-04-29T18:42:32.231Z,19.9
2023-04-29T18:45:03.078Z,19.9
2023-04-29T18:47:33.741Z,19.9
2023-04-29T18:50:05.279Z,19.9
2023-04-29T18:52:36.085Z,19.9
2023-04-29T18:55:06.592Z,19.8
2023-04-29T18:57:37.324Z,19.7
2023-04-29T19:00:08.505Z,19.7
2023-04-29T19:02:39.740Z,19.7
2023-04-29T19:05:08.874Z,19.6
2023-04-29T19:07:39.724Z,19.6
2023-04-29T19:10:13.034Z,19.5
2023-04-29T19:12:43.947Z,19.4
2023-04-29T19:15:14.331Z,19.5
2023-04-29T19:17:44.828Z,19.3
2023-04-29T19:20:16.025Z,19.3
2023-04-29T19:22:45.483Z,19.3
2023-04-29T19:25:17.277Z,19.1
2023-04-29T19:27:52.372Z,19.2
2023-04-29T19:30:22.829Z,19.1
2023-04-29T19:32:53.289Z,19.1
2023-04-29T19:35:23.632Z,19.2
2023-04-29T19:38:02.020Z,19
2023-04-29T19:40:41.563Z,19.1
2023-04-29T19:43:12.797Z,19.1
2023-04-29T19:45:43.310Z,19.1
2023-04-29T19:49:52.757Z,19.1
2023-04-29T19:52:25.069Z,19
2023-04-29T20:16:20.254Z,18.6
2023-04-29T20:18:51.658Z,18.6
2023-04-29T20:21:22.167Z,18.6
2023-04-29T20:23:52.418Z,18.4
2023-04-29T20:29:00.847Z,18.3
2023-04-29T20:31:32.117Z,18.2
2023-04-29T20:34:02.514Z,18.1
2023-04-29T20:36:33.248Z,18
2023-04-29T20:39:03.907Z,17.9
2023-04-29T20:41:34.795Z,17.8
2023-04-29T20:44:05.481Z,17.8
2023-04-29T20:46:35.885Z,17.7
2023-04-29T20:49:06.818Z,17.7
2023-04-29T20:51:37.574Z,17.7
2023-04-29T20:54:08.472Z,17.5
2023-04-29T20:56:39.196Z,17.4
2023-04-29T20:59:09.690Z,17.5
2023-04-29T21:01:39.300Z,17.4
2023-04-29T21:04:09.306Z,17.4
2023-04-29T21:06:40.634Z,17.3
2023-04-29T21:09:11.283Z,17.2
2023-04-29T21:11:44.275Z,17.3
2023-04-29T21:14:19.777Z,17.2
2023-04-29T21:16:52.178Z,17.3
2023-04-29T21:19:35.723Z,17.1
2023-04-29T21:22:06.810Z,17.1
2023-04-29T21:24:38.674Z,17.1
2023-04-29T21:27:07.919Z,17.1
2023-04-29T21:29:38.202Z,17
2023-04-29T21:32:10.055Z,17
2023-04-29T21:34:40.591Z,17
2023-04-29T21:37:11.515Z,17
2023-04-29T21:39:42.406Z,16.8
2023-04-29T21:42:12.574Z,16.8
2023-04-29T21:44:59.309Z,16.8
2023-04-29T21:47:29.130Z,16.9
2023-04-29T21:49:59.735Z,16.8
2023-04-29T21:52:32.748Z,16.7
2023-04-29T21:55:07.552Z,16.7
2023-04-29T21:57:43.958Z,16.5
2023-04-29T22:00:06.483Z,16.5
2023-04-29T22:02:37.490Z,16.6
2023-04-29T22:05:07.905Z,16.5
2023-04-29T22:07:38.688Z,16.3
2023-04-29T22:10:09.324Z,16.3
2023-04-29T22:12:41.265Z,16.2
2023-04-29T22:15:20.894Z,16
2023-04-29T22:17:42.867Z,16.1
2023-04-29T22:20:13.496Z,16
2023-04-29T22:22:44.002Z,16
2023-04-29T22:25:14.940Z,16
2023-04-29T22:27:46.250Z,15.9
2023-04-29T22:30:17.360Z,15.9
2023-04-29T22:32:49.638Z,15.9
2023-04-29T22:37:56.800Z,16
2023-04-29T22:40:55.990Z,15.9
2023-04-29T22:46:06.412Z,15.9
2023-04-29T22:48:37.356Z,15.9
2023-04-29T22:51:08.276Z,15.8
2023-04-29T22:53:39.009Z,15.7
2023-04-29T22:56:09.733Z,15.6
2023-04-29T22:58:40.654Z,15.6
2023-04-29T23:01:12.072Z,15.6
2023-04-29T23:03:43.265Z,15.3
2023-04-29T23:06:14.339Z,15.4
2023-04-29T23:08:44.678Z,15.3
2023-04-29T23:11:15.856Z,15.2
2023-04-29T23:13:46.388Z,15.1
2023-04-29T23:16:17.700Z,15.1
2023-04-29T23:18:53.098Z,15.1
2023-04-29T23:21:26.043Z,15
2023-04-29T23:23:57.284Z,14.9
2023-04-29T23:26:27.894Z,14.8
2023-04-29T23:28:59.385Z,14.9
2023-04-29T23:31:30.405Z,14.8
2023-04-29T23:34:02.139Z,14.8
2023-04-29T23:36:32.942Z,14.8
2023-04-29T23:39:03.802Z,14.8
2023-04-29T23:41:34.753Z,14.6
2023-04-29T23:44:05.105Z,14.6
2023-04-29T23:46:34.244Z,14.6
2023-04-29T23:49:04.599Z,14.6
2023-04-29T23:51:33.885Z,14.4
2023-04-29T23:54:04.837Z,14.3
2023-04-29T23:56:41.286Z,14.4
2023-04-29T23:59:12.333Z,14.4
